Time,TemperatureF,DewpointF,PressureIn,WindDirection,WindDirectionDegrees,WindSpeedMPH,WindSpeedGustMPH,Humidity,HourlyPrecipIn,Conditions,Clouds,dailyrainin,SolarRadiationWatts/m^2,SoftwareType,DateUTC
2013-04-02 00:00:00,32.9,18.1,29.77,North,0,0.0,0.0,54,0.00,CLR,,0.11,0.0,WeatherDisplay:10.37,2013-04-02 04:00:00,
2013-04-02 00:05:00,32.8,18.0,29.77,North,0,0.0,0.0,54,0.00,RA,,0.00,0.0,WeatherDisplay:10.37,2013-04-02 04:05:00,
2013-04-02 00:10:00,32.7,18.3,29.77,North,0,0.0,0.0,55,0.00,CLR,,0.00,0.0,WeatherDisplay:10.37,2013-04-02 04:10:00,
2013-04-02 00:15:00,32.6,18.2,29.77,North,0,0.0,0.0,55,0.00,CLR,,0.00,0.0,WeatherDisplay:10.37,2013-04-02 04:15:00,
2013-04-02 00:20:00,32.5,18.1,29.78,North,0,0.0,0.0,55,0.00,CLR,,0.00,0.0,WeatherDisplay:10.37,2013-04-02 04:20:00,
2013-04-02 00:25:00,32.4,18.4,29.78,North,0,0.0,0.0,56,0.00,CLR,,0.00,0.0,WeatherDisplay:10.37,2013-04-02 04:25:00,
2013-04-02 00:30:00,32.3,18.3,29.78,North,0,0.0,0.0,56,0.00,CLR,,0.00,0.0,WeatherDisplay:10.37,2013-04-02 04:30:00,
2013-04-02 00:35:00,32.2,17.8,29.78,North,0,0.0,0.0,55,0.00,CLR,,0.00,0.0,WeatherDisplay:10.37,2013-04-02 04:35:00,
2013-04-02 00:40:00,32.2,17.4,29.78,North,0,0.0,0.0,54,0.00,CLR,,0.00,0.0,WeatherDisplay:10.37,2013-04-02 04:40:00,
2013-04-02 00:45:00,32.2,16.5,29.78,North,0,0.0,0.0,52,0.00,CLR,,0.00,0.0,WeatherDisplay:10.37,2013-04-02 04:45:00,
2013-04-02 00:50:00,32.2,16.5,29.78,North,0,0.0,0.0,52,0.00,CLR,,0.00,0.0,WeatherDisplay:10.37,2013-04-02 04:50:00,
2013-04-02 00:55:00,32.2,16.5,29.78,North,0,0.0,0.0,52,0.00,CLR,,0.00,0.0,WeatherDisplay:10.37,2013-04-02 04:55:00,
2013-04-02 01:00:00,32.2,17.0,29.79,North,0,0.0,0.0,53,0.00,CLR,,0.00,0.0,WeatherDisplay:10.37,2013-04-02 05:00:00,
2013-04-02 01:05:00,32.1,16.4,29.79,North,0,0.0,0.0,52,0.00,CLR,,0.00,0.0,WeatherDisplay:10.37,2013-04-02 05:05:00,
2013-04-02 01:10:00,32.1,16.4,29.80,North,0,0.0,0.0,52,0.00,CLR,,0.00,0.0,WeatherDisplay:10.37,2013-04-02 05:10:00,
2013-04-02 01:15:00,31.9,16.2,29.80,North,0,0.0,0.0,52,0.00,CLR,,0.00,0.0,WeatherDisplay:10.37,2013-04-02 05:15:00,
2013-04-02 01:20:00,31.9,15.8,29.80,North,0,0.0,0.0,51,0.00,CLR,,0.00,0.0,WeatherDisplay:10.37,2013-04-02 05:20:00,
2013-04-02 01:25:00,31.8,17.5,29.80,North,0,0.0,0.0,55,0.00,CLR,,0.00,0.0,WeatherDisplay:10.37,2013-04-02 05:25:00,
2013-04-02 01:30:00,31.7,16.1,29.80,North,0,0.0,0.0,52,0.00,CLR,,0.00,0.0,WeatherDisplay:10.37,2013-04-02 05:30:00,
2013-04-02 01:35:00,31.6,15.5,29.80,North,0,0.0,0.0,51,0.00,CLR,,0.00,0.0,WeatherDisplay:10.37,2013-04-02 05:35:00,
2013-04-02 01:40:00,31.5,15.4,29.80,North,0,0.0,0.0,51,0.00,CLR,,0.00,0.0,WeatherDisplay:10.37,2013-04-02 05:40:00,
2013-04-02 01:45:00,31.5,15.4,29.80,North,0,0.0,0.0,51,0.00,CLR,,0.00,0.0,WeatherDisplay:10.37,2013-04-02 05:45:00,
2013-04-02 01:50:00,31.4,15.8,29.80,North,0,0.0,0.0,52,0.00,CLR,,0.00,0.0,WeatherDisplay:10.37,2013-04-02 05:50:00,
2013-04-02 01:56:00,31.4,15.8,29.80,North,0,0.0,0.0,52,0.00,CLR,,0.00,0.0,WeatherDisplay:10.37,2013-04-02 05:56:00,
2013-04-02 02:01:00,31.3,15.7,29.80,North,0,0.0,0.0,52,0.00,CLR,,0.00,0.0,WeatherDisplay:10.37,2013-04-02 06:01:00,
2013-04-02 02:06:00,31.2,16.0,29.80,North,0,0.0,0.0,53,0.00,CLR,,0.00,0.0,WeatherDisplay:10.37,2013-04-02 06:06:00,
2013-04-02 02:11:00,31.2,16.0,29.80,North,0,0.0,0.0,53,0.00,CLR,,0.00,0.0,WeatherDisplay:10.37,2013-04-02 06:11:00,
2013-04-02 02:16:00,31.1,15.9,29.80,North,0,0.0,0.0,53,0.00,CLR,,0.00,0.0,WeatherDisplay:10.37,2013-04-02 06:16:00,
2013-04-02 02:21:00,31.0,15.8,29.80,North,0,0.0,0.0,53,0.00,CLR,,0.00,0.0,WeatherDisplay:10.37,2013-04-02 06:21:00,
2013-04-02 02:26:00,31.0,16.3,29.80,North,0,0.0,0.0,54,0.00,CLR,,0.00,0.0,WeatherDisplay:10.37,2013-04-02 06:26:00,
2013-04-02 02:31:00,30.8,16.5,29.79,North,0,0.0,0.0,55,0.00,CLR,,0.00,0.0,WeatherDisplay:10.37,2013-04-02 06:31:00,
2013-04-02 02:36:00,30.7,15.6,29.79,North,0,0.0,0.0,53,0.00,CLR,,0.00,0.0,WeatherDisplay:10.37,2013-04-02 06:36:00,
2013-04-02 02:41:00,30.7,16.0,29.79,North,0,0.0,0.0,54,0.00,CLR,,0.00,0.0,WeatherDisplay:10.37,2013-04-02 06:41:00,
2013-04-02 02:46:00,30.6,16.3,29.79,North,0,0.0,0.0,55,0.00,CLR,,0.00,0.0,WeatherDisplay:10.37,2013-04-02 06:46:00,
2013-04-02 02:51:00,30.5,16.2,29.79,North,0,0.0,0.0,55,0.00,CLR,,0.00,0.0,WeatherDisplay:10.37,2013-04-02 06:51:00,
2013-04-02 02:56:00,30.4,16.1,29.79,North,0,0.0,0.0,55,0.00,CLR,,0.00,0.0,WeatherDisplay:10.37,2013-04-02 06:56:00,
2013-04-02 03:01:00,30.3,16.5,29.79,North,0,0.0,0.0,56,0.00,CLR,,0.00,0.0,WeatherDisplay:10.37,2013-04-02 07:01:00,
2013-04-02 03:06:00,30.2,16.0,29.79,North,0,0.0,0.0,55,0.00,CLR,,0.00,0.0,WeatherDisplay:10.37,2013-04-02 07:06:00,
2013-04-02 03:11:00,30.2,16.0,29.80,North,0,0.0,0.0,55,0.00,CLR,,0.00,0.0,WeatherDisplay:10.37,2013-04-02 07:11:00,
2013-04-02 03:16:00,30.1,15.9,29.80,North,0,0.0,0.0,55,0.00,CLR,,0.00,0.0,WeatherDisplay:10.37,2013-04-02 07:16:00,
2013-04-02 03:21:00,30.1,15.9,29.80,North,0,0.0,0.0,55,0.00,CLR,,0.00,0.0,WeatherDisplay:10.37,2013-04-02 07:21:00,
2013-04-02 03:26:00,30.0,16.2,29.80,North,0,0.0,0.0,56,0.00,CLR,,0.00,0.0,WeatherDisplay:10.37,2013-04-02 07:26:00,
2013-04-02 03:31:00,29.9,16.1,29.80,North,0,0.0,0.0,56,0.00,CLR,,0.00,0.0,WeatherDisplay:10.37,2013-04-02 07:31:00,
2013-04-02 03:36:00,29.8,16.4,29.80,North,0,0.0,0.0,57,0.00,CLR,,0.00,0.0,WeatherDisplay:10.37,2013-04-02 07:36:00,
2013-04-02 03:41:00,29.7,16.3,29.80,North,0,0.0,0.0,57,0.00,CLR,,0.00,0.0,WeatherDisplay:10.37,2013-04-02 07:41:00,
2013-04-02 03:46:00,29.6,16.2,29.80,North,0,0.0,0.0,57,0.00,CLR,,0.00,0.0,WeatherDisplay:10.37,2013-04-02 07:46:00,
2013-04-02 03:51:00,29.5,16.1,29.80,North,0,0.0,0.0,57,0.00,CLR,,0.00,0.0,WeatherDisplay:10.37,2013-04-02 07:51:00,
2013-04-02 03:56:00,29.4,16.0,29.80,North,0,0.0,0.0,57,0.00,CLR,,0.00,0.0,WeatherDisplay:10.37,2013-04-02 07:56:00,
2013-04-02 04:01:00,29.4,16.4,29.80,North,0,0.0,0.0,58,0.00,CLR,,0.00,0.0,WeatherDisplay:10.37,2013-04-02 08:01:00,
2013-04-02 04:06:00,29.2,16.2,29.80,North,0,0.0,0.0,58,0.00,CLR,,0.00,0.0,WeatherDisplay:10.37,2013-04-02 08:06:00,
2013-04-02 04:11:00,29.2,16.2,29.80,North,0,0.0,0.0,58,0.00,CLR,,0.00,0.0,WeatherDisplay:10.37,2013-04-02 08:11:00,
2013-04-02 04:16:00,29.1,16.1,29.80,North,0,0.0,0.0,58,0.00,CLR,,0.00,0.0,WeatherDisplay:10.37,2013-04-02 08:16:00,
2013-04-02 04:21:00,29.0,16.1,29.80,North,0,0.0,0.0,58,0.00,CLR,,0.00,0.0,WeatherDisplay:10.37,2013-04-02 08:21:00,
2013-04-02 04:26:00,29.0,16.4,29.80,North,0,0.0,0.0,59,0.00,CLR,,0.00,0.0,WeatherDisplay:10.37,2013-04-02 08:26:00,
2013-04-02 04:31:00,29.0,16.4,29.80,North,0,0.0,0.0,59,0.00,CLR,,0.00,0.0,WeatherDisplay:10.37,2013-04-02 08:31:00,
2013-04-02 04:36:00,28.9,16.4,29.80,North,0,0.0,0.0,59,0.00,CLR,,0.00,0.0,WeatherDisplay:10.37,2013-04-02 08:36:00,
2013-04-02 04:41:00,28.8,16.3,29.80,North,0,0.0,0.0,59,0.00,CLR,,0.00,0.0,WeatherDisplay:10.37,2013-04-02 08:41:00,
2013-04-02 04:46:00,28.7,16.2,29.80,North,0,0.0,0.0,59,0.00,CLR,,0.00,0.0,WeatherDisplay:10.37,2013-04-02 08:46:00,
2013-04-02 04:51:00,28.6,16.1,29.81,North,0,0.0,0.0,59,0.00,CLR,,0.00,0.0,WeatherDisplay:10.37,2013-04-02 08:51:00,
2013-04-02 04:56:00,28.5,16.4,29.81,North,0,0.0,0.0,60,0.00,CLR,,0.00,0.0,WeatherDisplay:10.37,2013-04-02 08:56:00,
2013-04-02 05:01:00,28.4,16.3,29.81,North,0,0.0,0.0,60,0.00,CLR,,0.00,0.0,WeatherDisplay:10.37,2013-04-02 09:01:00,
2013-04-02 05:06:00,28.2,16.8,29.80,North,0,0.0,0.0,62,0.00,CLR,,0.00,0.0,WeatherDisplay:10.37,2013-04-02 09:06:00,
2013-04-02 05:11:00,28.0,17.0,29.81,North,0,0.0,0.0,63,0.00,CLR,,0.00,0.0,WeatherDisplay:10.37,2013-04-02 09:11:00,
2013-04-02 05:16:00,27.9,16.9,29.81,North,0,0.0,0.0,63,0.00,CLR,,0.00,0.0,WeatherDisplay:10.37,2013-04-02 09:16:00,
2013-04-02 05:21:00,27.8,16.8,29.81,North,0,0.0,0.0,63,0.00,CLR,,0.00,0.0,WeatherDisplay:10.37,2013-04-02 09:21:00,
2013-04-02 05:26:00,27.7,16.7,29.81,North,0,0.0,0.0,63,0.00,CLR,,0.00,0.0,WeatherDisplay:10.37,2013-04-02 09:26:00,
2013-04-02 05:31:00,27.5,16.5,29.81,North,0,0.0,0.0,63,0.00,CLR,,0.00,0.0,WeatherDisplay:10.37,2013-04-02 09:31:00,
2013-04-02 05:36:00,27.4,16.8,29.82,North,0,0.0,0.0,64,0.00,CLR,,0.00,0.0,WeatherDisplay:10.37,2013-04-02 09:36:00,
2013-04-02 05:41:00,27.2,16.6,29.82,North,0,0.0,0.0,64,0.00,CLR,,0.00,0.0,WeatherDisplay:10.37,2013-04-02 09:41:00,
2013-04-02 05:46:00,27.1,16.5,29.82,North,0,0.0,0.0,64,0.00,CLR,,0.00,0.0,WeatherDisplay:10.37,2013-04-02 09:46:00,
2013-04-02 05:51:00,27.0,16.4,29.82,North,0,0.0,0.0,64,0.00,CLR,,0.00,0.0,WeatherDisplay:10.37,2013-04-02 09:51:00,
2013-04-02 05:56:00,26.9,16.7,29.82,North,0,0.0,0.0,65,0.00,CLR,,0.00,0.0,WeatherDisplay:10.37,2013-04-02 09:56:00,
2013-04-02 06:01:00,26.7,16.5,29.82,North,0,0.0,0.0,65,0.00,OVC,,0.00,0.0,WeatherDisplay:10.37,2013-04-02 10:01:00,
2013-04-02 06:06:00,26.6,17.1,29.83,North,0,0.0,0.0,67,0.00,OVC,,0.00,0.0,WeatherDisplay:10.37,2013-04-02 10:06:00,
2013-04-02 06:11:00,26.5,17.4,29.83,North,0,0.0,0.0,68,0.00,OVC,,0.00,0.0,WeatherDisplay:10.37,2013-04-02 10:11:00,
2013-04-02 06:16:00,26.4,17.3,29.83,North,0,0.0,0.0,68,0.00,OVC,,0.00,0.0,WeatherDisplay:10.37,2013-04-02 10:16:00,
2013-04-02 06:21:00,26.3,17.2,29.83,North,0,0.0,0.0,68,0.00,OVC,,0.00,0.0,WeatherDisplay:10.37,2013-04-02 10:21:00,
2013-04-02 06:26:00,26.1,17.0,29.83,North,0,0.0,0.0,68,0.00,OVC,,0.00,0.0,WeatherDisplay:10.37,2013-04-02 10:26:00,
2013-04-02 06:31:00,26.0,17.2,29.83,North,0,0.0,0.0,69,0.00,OVC,,0.00,5.0,WeatherDisplay:10.37,2013-04-02 10:31:00,
2013-04-02 06:36:00,25.9,17.1,29.83,North,0,0.0,0.0,69,0.00,CLR,,0.00,5.0,WeatherDisplay:10.37,2013-04-02 10:36:00,
2013-04-02 06:41:00,25.8,17.7,29.83,North,0,0.0,0.0,71,0.00,BKN,,0.00,7.0,WeatherDisplay:10.37,2013-04-02 10:41:00,
2013-04-02 06:46:00,25.6,17.8,29.84,North,0,0.0,0.0,72,0.00,BKN,,0.00,11.0,WeatherDisplay:10.37,2013-04-02 10:46:00,
2013-04-02 06:51:00,25.6,17.8,29.84,North,0,0.0,0.0,72,0.00,BKN,,0.00,12.0,WeatherDisplay:10.37,2013-04-02 10:51:00,
2013-04-02 06:56:00,25.5,18.0,29.84,North,0,0.0,0.0,73,0.00,BKN,,0.00,14.0,WeatherDisplay:10.37,2013-04-02 10:56:00,
2013-04-02 07:01:00,25.4,17.9,29.84,North,0,0.0,0.0,73,0.00,BKN,,0.00,18.0,WeatherDisplay:10.37,2013-04-02 11:01:00,
2013-04-02 07:06:00,25.4,17.9,29.84,North,0,0.0,0.0,73,0.00,BKN,,0.00,21.0,WeatherDisplay:10.37,2013-04-02 11:06:00,
2013-04-02 07:11:00,25.4,18.3,29.84,North,0,0.0,0.0,74,0.00,BKN,,0.00,25.0,WeatherDisplay:10.37,2013-04-02 11:11:00,
2013-04-02 07:16:00,25.4,18.6,29.85,North,0,0.0,0.0,75,0.00,BKN,,0.00,32.0,WeatherDisplay:10.37,2013-04-02 11:16:00,
2013-04-02 07:21:00,25.5,18.7,29.85,North,0,0.0,0.0,75,0.00,BKN,,0.00,44.0,WeatherDisplay:10.37,2013-04-02 11:21:00,
2013-04-02 07:26:00,25.6,18.8,29.85,North,0,0.0,0.0,75,0.00,BKN,,0.00,51.0,WeatherDisplay:10.37,2013-04-02 11:26:00,
2013-04-02 07:31:00,26.0,19.2,29.85,North,0,0.0,0.0,75,0.00,BKN,,0.00,49.0,WeatherDisplay:10.37,2013-04-02 11:31:00,
2013-04-02 07:36:00,26.4,19.2,29.85,North,0,0.0,0.0,74,0.00,BKN,,0.00,51.0,WeatherDisplay:10.37,2013-04-02 11:36:00,
2013-04-02 07:41:00,26.8,19.3,29.85,North,0,0.0,0.0,73,0.00,BKN,,0.00,63.0,WeatherDisplay:10.37,2013-04-02 11:41:00,
2013-04-02 07:46:00,27.2,19.7,29.86,North,0,0.0,0.0,73,0.00,BKN,,0.00,40.0,WeatherDisplay:10.37,2013-04-02 11:46:00,
2013-04-02 07:51:00,27.6,19.8,29.86,North,0,0.0,0.0,72,0.00,BKN,,0.00,69.0,WeatherDisplay:10.37,2013-04-02 11:51:00,
2013-04-02 07:56:00,28.0,20.1,29.86,North,0,0.0,0.0,72,0.00,BKN,,0.00,67.0,WeatherDisplay:10.37,2013-04-02 11:56:00,
2013-04-02 08:01:00,28.5,20.3,29.86,North,0,0.0,0.0,71,0.00,BKN,,0.00,72.0,WeatherDisplay:10.37,2013-04-02 12:01:00,
2013-04-02 08:06:00,28.9,20.3,29.86,North,0,0.0,0.0,70,0.00,BKN,,0.00,146.0,WeatherDisplay:10.37,2013-04-02 12:06:00,
2013-04-02 08:11:00,29.5,20.6,29.86,North,0,0.0,0.0,69,0.00,SCT,,0.00,144.0,WeatherDisplay:10.37,2013-04-02 12:11:00,
2013-04-02 08:16:00,30.1,20.8,29.86,North,0,0.0,0.0,68,0.00,SCT,,0.00,165.0,WeatherDisplay:10.37,2013-04-02 12:16:00,
2013-04-02 08:21:00,30.6,20.9,29.86,North,0,0.0,0.0,67,0.00,BKN,,0.00,84.0,WeatherDisplay:10.37,2013-04-02 12:21:00,
2013-04-02 08:26:00,30.8,20.8,29.86,North,0,0.0,0.0,66,0.00,BKN,,0.00,49.0,WeatherDisplay:10.37,2013-04-02 12:26:00,
2013-04-02 08:31:00,31.0,20.6,29.86,North,0,0.0,0.0,65,0.00,BKN,,0.00,90.0,WeatherDisplay:10.37,2013-04-02 12:31:00,
2013-04-02 08:36:00,31.2,20.8,29.86,North,0,0.0,0.0,65,0.00,BKN,,0.00,221.0,WeatherDisplay:10.37,2013-04-02 12:36:00,
2013-04-02 08:41:00,31.5,21.4,29.86,North,0,0.0,0.0,66,0.00,SCT,,0.00,141.0,WeatherDisplay:10.37,2013-04-02 12:41:00,
2013-04-02 08:46:00,31.7,20.9,29.86,North,0,0.0,0.0,64,0.00,BKN,,0.00,91.0,WeatherDisplay:10.37,2013-04-02 12:46:00,
2013-04-02 08:51:00,31.7,20.2,29.86,North,0,0.0,0.0,62,0.00,BKN,,0.00,171.0,WeatherDisplay:10.37,2013-04-02 12:51:00,
2013-04-02 08:56:00,31.8,20.6,29.86,North,0,0.0,0.0,63,0.00,BKN,,0.00,97.0,WeatherDisplay:10.37,2013-04-02 12:56:00,
2013-04-02 09:01:00,32.0,20.8,29.86,North,0,0.0,0.0,63,0.00,SCT,,0.00,292.0,WeatherDisplay:10.37,2013-04-02 13:01:00,
2013-04-02 09:06:00,32.3,21.1,29.86,North,0,0.0,0.0,63,0.00,SCT,,0.00,336.0,WeatherDisplay:10.37,2013-04-02 13:06:00,
2013-04-02 09:11:00,32.7,21.5,29.86,North,0,0.0,0.0,63,0.00,SCT,,0.00,262.0,WeatherDisplay:10.37,2013-04-02 13:11:00,
2013-04-02 09:16:00,33.2,21.6,29.86,North,0,0.0,0.0,62,0.00,SCT,,0.00,165.0,WeatherDisplay:10.37,2013-04-02 13:16:00,
2013-04-02 09:21:00,33.5,21.5,29.86,North,0,0.0,0.0,61,0.00,BKN,,0.00,225.0,WeatherDisplay:10.37,2013-04-02 13:21:00,
2013-04-02 09:26:00,33.8,21.8,29.85,North,0,0.0,0.0,61,0.00,SCT,,0.00,492.0,WeatherDisplay:10.37,2013-04-02 13:26:00,
2013-04-02 09:31:00,34.2,22.1,29.85,North,0,0.0,0.0,61,0.00,FEW,,0.00,668.0,WeatherDisplay:10.37,2013-04-02 13:31:00,
2013-04-02 09:36:00,34.6,22.1,29.85,North,0,0.0,0.0,60,0.00,FEW,,0.00,158.0,WeatherDisplay:10.37,2013-04-02 13:36:00,
2013-04-02 09:41:00,34.7,21.4,29.86,North,0,0.0,0.0,58,0.00,BKN,,0.00,142.0,WeatherDisplay:10.37,2013-04-02 13:41:00,
2013-04-02 09:46:00,34.6,21.7,29.86,North,0,0.0,0.0,59,0.00,BKN,,0.00,120.0,WeatherDisplay:10.37,2013-04-02 13:46:00,
2013-04-02 09:51:00,34.4,20.7,29.86,North,0,0.0,0.0,57,0.00,BKN,,0.00,193.0,WeatherDisplay:10.37,2013-04-02 13:51:00,
2013-04-02 09:56:00,34.1,20.9,29.86,North,0,0.0,0.0,58,0.00,BKN,,0.00,239.0,WeatherDisplay:10.37,2013-04-02 13:56:00,
2013-04-02 10:01:00,34.1,20.9,29.86,North,0,0.0,0.0,58,0.00,BKN,,0.00,223.0,WeatherDisplay:10.37,2013-04-02 14:01:00,
2013-04-02 10:06:00,33.9,19.8,29.86,North,0,0.0,0.0,56,0.00,BKN,,0.00,179.0,WeatherDisplay:10.37,2013-04-02 14:06:00,
2013-04-02 10:11:00,33.9,21.1,29.86,North,0,0.0,0.0,59,0.00,BKN,,0.00,193.0,WeatherDisplay:10.37,2013-04-02 14:11:00,
2013-04-02 10:16:00,34.1,21.7,29.86,North,0,0.0,0.0,60,0.00,BKN,,0.00,800.0,WeatherDisplay:10.37,2013-04-02 14:16:00,
2013-04-02 10:21:00,35.3,21.6,29.86,North,0,0.0,0.0,57,0.00,CLR,,0.00,299.0,WeatherDisplay:10.37,2013-04-02 14:21:00,
2013-04-02 10:26:00,35.6,21.4,29.86,North,0,0.0,0.0,56,0.00,SCT,,0.00,211.0,WeatherDisplay:10.37,2013-04-02 14:26:00,
2013-04-02 10:31:00,35.6,21.4,29.86,North,0,0.0,0.0,56,0.00,BKN,,0.00,171.0,WeatherDisplay:10.37,2013-04-02 14:31:00,
2013-04-02 10:36:00,35.2,22.3,29.86,North,0,0.0,0.0,59,0.00,BKN,,0.00,171.0,WeatherDisplay:10.37,2013-04-02 14:36:00,
2013-04-02 10:41:00,35.8,22.9,29.86,North,0,0.0,0.0,59,0.00,SCT,,0.00,524.0,WeatherDisplay:10.37,2013-04-02 14:41:00,
2013-04-02 10:46:00,36.0,22.6,29.86,North,0,0.0,0.0,58,0.00,BKN,,0.00,153.0,WeatherDisplay:10.37,2013-04-02 14:46:00,
2013-04-02 10:51:00,36.1,23.9,29.86,North,0,0.0,0.0,61,0.00,SCT,,0.00,870.0,WeatherDisplay:10.37,2013-04-02 14:51:00,
2013-04-02 10:56:00,36.4,21.8,29.86,North,0,0.0,0.0,55,0.00,FEW,,0.00,301.0,WeatherDisplay:10.37,2013-04-02 14:56:00,
2013-04-02 11:02:00,36.3,21.7,29.86,North,0,0.0,0.0,55,0.00,BKN,,0.00,362.0,WeatherDisplay:10.37,2013-04-02 15:02:00,
2013-04-02 11:07:00,36.0,20.5,29.86,North,0,0.0,0.0,53,0.00,BKN,,0.00,287.0,WeatherDisplay:10.37,2013-04-02 15:07:00,
2013-04-02 11:12:00,35.8,19.9,29.86,North,0,0.0,0.0,52,0.00,BKN,,0.00,705.0,WeatherDisplay:10.37,2013-04-02 15:12:00,
2013-04-02 11:17:00,35.8,21.2,29.85,North,0,0.0,0.0,55,0.00,SCT,,0.00,264.0,WeatherDisplay:10.37,2013-04-02 15:17:00,
2013-04-02 11:22:00,36.3,20.3,29.85,North,0,0.0,0.0,52,0.00,BKN,,0.00,236.0,WeatherDisplay:10.37,2013-04-02 15:22:00,
2013-04-02 11:27:00,36.2,19.3,29.85,North,0,0.0,0.0,50,0.00,BKN,,0.00,299.0,WeatherDisplay:10.37,2013-04-02 15:27:00,
2013-04-02 11:32:00,36.0,20.1,29.85,North,0,0.0,0.0,52,0.00,BKN,,0.00,290.0,WeatherDisplay:10.37,2013-04-02 15:32:00,
2013-04-02 11:37:00,36.5,20.1,29.85,North,0,0.0,0.0,51,0.00,BKN,,0.00,172.0,WeatherDisplay:10.37,2013-04-02 15:37:00,
2013-04-02 11:42:00,36.4,19.5,29.85,North,0,0.0,0.0,50,0.00,BKN,,0.00,202.0,WeatherDisplay:10.37,2013-04-02 15:42:00,
2013-04-02 11:47:00,36.1,19.2,29.85,North,0,0.0,0.0,50,0.00,SCT,,0.00,221.0,WeatherDisplay:10.37,2013-04-02 15:47:00,
2013-04-02 11:52:00,36.4,20.4,29.85,North,0,0.0,0.0,52,0.00,BKN,,0.00,737.0,WeatherDisplay:10.37,2013-04-02 15:52:00,
2013-04-02 11:57:00,37.5,21.0,29.84,North,0,0.0,0.0,51,0.00,FEW,,0.00,842.0,WeatherDisplay:10.37,2013-04-02 15:57:00,
2013-04-02 12:02:00,38.1,20.6,29.84,North,0,0.0,0.0,49,0.00,SCT,,0.00,271.0,WeatherDisplay:10.37,2013-04-02 16:02:00,
2013-04-02 12:07:00,38.8,22.7,29.85,North,0,0.0,0.0,52,0.00,SCT,,0.00,1002.0,WeatherDisplay:10.37,2013-04-02 16:07:00,
2013-04-02 12:12:00,39.1,19.5,29.84,North,0,0.0,0.0,45,0.00,CLR,,0.00,1046.0,WeatherDisplay:10.37,2013-04-02 16:12:00,
2013-04-02 12:18:00,39.3,20.7,29.84,North,0,0.0,0.0,47,0.00,CLR,,0.00,1039.0,WeatherDisplay:10.37,2013-04-02 16:18:00,
2013-04-02 12:23:00,39.7,20.1,29.84,North,0,0.0,0.0,45,0.00,CLR,,0.00,1007.0,WeatherDisplay:10.37,2013-04-02 16:23:00,
2013-04-02 12:28:00,39.6,19.5,29.84,North,0,0.0,0.0,44,0.00,BKN,,0.00,237.0,WeatherDisplay:10.37,2013-04-02 16:28:00,
2013-04-02 12:34:00,38.9,19.3,29.84,North,0,0.0,0.0,45,0.00,BKN,,0.00,970.0,WeatherDisplay:10.37,2013-04-02 16:34:00,
2013-04-02 12:39:00,39.2,20.1,29.83,North,0,0.0,0.0,46,0.00,FEW,,0.00,413.0,WeatherDisplay:10.37,2013-04-02 16:39:00,
2013-04-02 12:44:00,39.2,20.1,29.83,North,0,0.0,0.0,46,0.00,SCT,,0.00,891.0,WeatherDisplay:10.37,2013-04-02 16:44:00,
2013-04-02 12:49:00,39.2,19.6,29.83,North,0,0.0,0.0,45,0.00,CLR,,0.00,946.0,WeatherDisplay:10.37,2013-04-02 16:49:00,
2013-04-02 12:54:00,40.4,20.2,29.83,North,0,0.0,0.0,44,0.00,CLR,,0.00,1030.0,WeatherDisplay:10.37,2013-04-02 16:54:00,
2013-04-02 12:59:00,40.5,19.7,29.83,North,0,0.0,0.0,43,0.00,CLR,,0.00,963.0,WeatherDisplay:10.37,2013-04-02 16:59:00,
2013-04-02 13:05:00,40.1,18.8,29.83,North,0,0.0,0.0,42,0.00,SCT,,0.00,944.0,WeatherDisplay:10.37,2013-04-02 17:05:00,
2013-04-02 13:10:00,39.8,18.5,29.82,North,0,0.0,0.0,42,0.00,CLR,,0.00,789.0,WeatherDisplay:10.37,2013-04-02 17:10:00,
2013-04-02 13:15:00,39.2,18.0,29.83,North,0,0.0,0.0,42,0.00,SCT,,0.00,223.0,WeatherDisplay:10.37,2013-04-02 17:15:00,
2013-04-02 13:20:00,38.9,17.7,29.82,North,0,0.0,0.0,42,0.00,BKN,,0.00,241.0,WeatherDisplay:10.37,2013-04-02 17:20:00,
2013-04-02 13:25:00,38.6,17.5,29.82,North,0,0.0,0.0,42,0.00,BKN,,0.00,207.0,WeatherDisplay:10.37,2013-04-02 17:25:00,
2013-04-02 13:30:00,38.4,17.8,29.82,North,0,0.0,0.0,43,0.00,BKN,,0.00,209.0,WeatherDisplay:10.37,2013-04-02 17:30:00,
2013-04-02 13:35:00,38.6,17.5,29.82,North,0,0.0,0.0,42,0.00,BKN,,0.00,264.0,WeatherDisplay:10.37,2013-04-02 17:35:00,
2013-04-02 13:40:00,38.6,16.3,29.82,North,0,0.0,0.0,40,0.00,BKN,,0.00,169.0,WeatherDisplay:10.37,2013-04-02 17:40:00,
2013-04-02 13:45:00,38.4,16.1,29.82,North,0,0.0,0.0,40,0.00,BKN,,0.00,264.0,WeatherDisplay:10.37,2013-04-02 17:45:00,
2013-04-02 13:50:00,39.3,19.7,29.82,North,0,0.0,0.0,45,0.00,SCT,,0.00,933.0,WeatherDisplay:10.37,2013-04-02 17:50:00,
2013-04-02 13:55:00,40.6,18.7,29.81,North,0,0.0,0.0,41,0.00,CLR,,0.00,265.0,WeatherDisplay:10.37,2013-04-02 17:55:00,
2013-04-02 14:00:00,40.2,17.8,29.82,North,0,0.0,0.0,40,0.00,BKN,,0.00,234.0,WeatherDisplay:10.37,2013-04-02 18:00:00,
2013-04-02 14:05:00,40.8,17.7,29.81,North,0,0.0,0.0,39,0.00,SCT,,0.00,348.0,WeatherDisplay:10.37,2013-04-02 18:05:00,
2013-04-02 14:10:00,40.4,15.5,29.81,North,0,0.0,0.0,36,0.00,SCT,,0.00,954.0,WeatherDisplay:10.37,2013-04-02 18:10:00,
2013-04-02 14:15:00,40.8,16.5,29.81,North,0,0.0,0.0,37,0.00,CLR,,0.00,944.0,WeatherDisplay:10.37,2013-04-02 18:15:00,
2013-04-02 14:20:00,41.0,17.9,29.81,North,0,0.0,0.0,39,0.00,CLR,,0.00,870.0,WeatherDisplay:10.37,2013-04-02 18:20:00,
2013-04-02 14:25:00,40.8,16.5,29.82,North,0,0.0,0.0,37,0.00,CLR,,0.00,912.0,WeatherDisplay:10.37,2013-04-02 18:25:00,
2013-04-02 14:30:00,41.5,17.7,29.82,North,0,0.0,0.0,38,0.00,CLR,,0.00,851.0,WeatherDisplay:10.37,2013-04-02 18:30:00,
2013-04-02 14:35:00,41.7,16.7,29.82,North,0,0.0,0.0,36,0.00,CLR,,0.00,882.0,WeatherDisplay:10.37,2013-04-02 18:35:00,
2013-04-02 14:40:00,40.7,17.0,29.82,North,0,0.0,0.0,38,0.00,SCT,,0.00,220.0,WeatherDisplay:10.37,2013-04-02 18:40:00,
2013-04-02 14:45:00,40.7,16.4,29.81,North,0,0.0,0.0,37,0.00,FEW,,0.00,914.0,WeatherDisplay:10.37,2013-04-02 18:45:00,
2013-04-02 14:51:00,41.8,17.4,29.82,North,0,0.0,0.0,37,0.00,CLR,,0.00,842.0,WeatherDisplay:10.37,2013-04-02 18:51:00,
2013-04-02 14:57:00,41.7,17.3,29.81,North,0,0.0,0.0,37,0.00,CLR,,0.00,770.0,WeatherDisplay:10.37,2013-04-02 18:57:00,
2013-04-02 15:02:00,40.7,16.4,29.81,North,0,0.0,0.0,37,0.00,CLR,,0.00,765.0,WeatherDisplay:10.37,2013-04-02 19:02:00,
2013-04-02 15:07:00,40.8,17.7,29.81,North,0,0.0,0.0,39,0.00,CLR,,0.00,830.0,WeatherDisplay:10.37,2013-04-02 19:07:00,
2013-04-02 15:12:00,41.4,18.3,29.81,North,0,0.0,0.0,39,0.00,CLR,,0.00,784.0,WeatherDisplay:10.37,2013-04-02 19:12:00,
2013-04-02 15:17:00,41.4,18.3,29.80,North,0,0.0,0.0,39,0.00,CLR,,0.00,594.0,WeatherDisplay:10.37,2013-04-02 19:17:00,
2013-04-02 15:22:00,40.9,17.8,29.81,North,0,0.0,0.0,39,0.00,SCT,,0.00,183.0,WeatherDisplay:10.37,2013-04-02 19:22:00,
2013-04-02 15:27:00,40.3,17.3,29.80,North,0,0.0,0.0,39,0.00,BKN,,0.00,700.0,WeatherDisplay:10.37,2013-04-02 19:27:00,
2013-04-02 15:32:00,40.0,17.6,29.81,North,0,0.0,0.0,40,0.00,FEW,,0.00,364.0,WeatherDisplay:10.37,2013-04-02 19:32:00,
2013-04-02 15:37:00,39.7,16.1,29.81,North,0,0.0,0.0,38,0.00,SCT,,0.00,417.0,WeatherDisplay:10.37,2013-04-02 19:37:00,
2013-04-02 15:43:00,39.7,16.1,29.81,North,0,0.0,0.0,38,0.00,FEW,,0.00,431.0,WeatherDisplay:10.37,2013-04-02 19:43:00,
2013-04-02 15:48:00,39.7,15.5,29.81,North,0,0.0,0.0,37,0.00,FEW,,0.00,540.0,WeatherDisplay:10.37,2013-04-02 19:48:00,
2013-04-02 15:53:00,39.6,16.0,29.81,North,0,0.0,0.0,38,0.00,CLR,,0.00,617.0,WeatherDisplay:10.37,2013-04-02 19:53:00,
2013-04-02 15:58:00,39.4,15.9,29.81,North,0,0.0,0.0,38,0.00,FEW,,0.00,318.0,WeatherDisplay:10.37,2013-04-02 19:58:00,
2013-04-02 16:03:00,39.5,16.0,29.81,North,0,0.0,0.0,38,0.00,SCT,,0.00,315.0,WeatherDisplay:10.37,2013-04-02 20:03:00,
2013-04-02 16:08:00,39.6,15.4,29.81,North,0,0.0,0.0,37,0.00,BKN,,0.00,225.0,WeatherDisplay:10.37,2013-04-02 20:08:00,
2013-04-02 16:14:00,39.6,16.0,29.81,North,0,0.0,0.0,38,0.00,SCT,,0.00,294.0,WeatherDisplay:10.37,2013-04-02 20:14:00,
2013-04-02 16:19:00,39.9,16.3,29.81,North,0,0.0,0.0,38,0.00,SCT,,0.00,209.0,WeatherDisplay:10.37,2013-04-02 20:19:00,
2013-04-02 16:24:00,39.8,16.2,29.81,North,0,0.0,0.0,38,0.00,SCT,,0.00,315.0,WeatherDisplay:10.37,2013-04-02 20:24:00,
2013-04-02 16:29:00,39.5,15.3,29.81,North,0,0.0,0.0,37,0.00,SCT,,0.00,246.0,WeatherDisplay:10.37,2013-04-02 20:29:00,
2013-04-02 16:34:00,39.3,15.2,29.81,North,0,0.0,0.0,37,0.00,SCT,,0.00,121.0,WeatherDisplay:10.37,2013-04-02 20:34:00,
2013-04-02 16:39:00,39.0,16.1,29.82,North,0,0.0,0.0,39,0.00,BKN,,0.00,251.0,WeatherDisplay:10.37,2013-04-02 20:39:00,
2013-04-02 16:44:00,39.0,16.1,29.82,North,0,0.0,0.0,39,0.00,BKN,,0.00,95.0,WeatherDisplay:10.37,2013-04-02 20:44:00,
2013-04-02 16:49:00,39.0,16.1,29.82,North,0,0.0,0.0,39,0.00,BKN,,0.00,225.0,WeatherDisplay:10.37,2013-04-02 20:49:00,
2013-04-02 16:54:00,39.0,16.1,29.83,North,0,0.0,0.0,39,0.00,SCT,,0.00,339.0,WeatherDisplay:10.37,2013-04-02 20:54:00,
2013-04-02 16:59:00,38.8,16.5,29.83,North,0,0.0,0.0,40,0.00,BKN,,0.00,67.0,WeatherDisplay:10.37,2013-04-02 20:59:00,
2013-04-02 17:04:00,38.3,14.9,29.83,North,0,0.0,0.0,38,0.00,BKN,,0.00,69.0,WeatherDisplay:10.37,2013-04-02 21:04:00,
2013-04-02 17:09:00,37.8,15.0,29.83,North,0,0.0,0.0,39,0.00,BKN,,0.00,63.0,WeatherDisplay:10.37,2013-04-02 21:09:00,
2013-04-02 17:14:00,37.4,14.1,29.82,North,0,0.0,0.0,38,0.00,BKN,,0.00,294.0,WeatherDisplay:10.37,2013-04-02 21:14:00,
2013-04-02 17:20:00,37.4,14.1,29.83,North,0,0.0,0.0,38,0.00,SCT,,0.00,111.0,WeatherDisplay:10.37,2013-04-02 21:20:00,
2013-04-02 17:25:00,37.3,14.0,29.83,North,0,0.0,0.0,38,0.00,BKN,,0.00,53.0,WeatherDisplay:10.37,2013-04-02 21:25:00,
2013-04-02 17:30:00,37.1,14.4,29.83,North,0,0.0,0.0,39,0.00,BKN,,0.00,98.0,WeatherDisplay:10.37,2013-04-02 21:30:00,
2013-04-02 17:35:00,36.9,14.2,29.83,North,0,0.0,0.0,39,0.00,BKN,,0.00,53.0,WeatherDisplay:10.37,2013-04-02 21:35:00,
2013-04-02 17:40:00,36.8,14.1,29.83,North,0,0.0,0.0,39,0.00,BKN,,0.00,60.0,WeatherDisplay:10.37,2013-04-02 21:40:00,
2013-04-02 17:45:00,36.6,14.5,29.84,North,0,0.0,0.0,40,0.00,BKN,,0.00,60.0,WeatherDisplay:10.37,2013-04-02 21:45:00,
2013-04-02 17:50:00,36.4,15.5,29.84,North,0,0.0,0.0,42,0.00,BKN,,0.00,60.0,WeatherDisplay:10.37,2013-04-02 21:50:00,
2013-04-02 17:55:00,36.2,15.8,29.84,North,0,0.0,0.0,43,0.00,BKN,,0.00,63.0,WeatherDisplay:10.37,2013-04-02 21:55:00,
2013-04-02 18:00:00,36.2,15.8,29.85,North,0,0.0,0.0,43,0.00,BKN,,0.00,32.0,WeatherDisplay:10.37,2013-04-02 22:00:00,
2013-04-02 18:05:00,36.0,16.2,29.85,North,0,0.0,0.0,44,0.00,BKN,,0.00,32.0,WeatherDisplay:10.37,2013-04-02 22:05:00,
2013-04-02 18:10:00,35.8,16.0,29.85,North,0,0.0,0.0,44,0.00,BKN,,0.00,23.0,WeatherDisplay:10.37,2013-04-02 22:10:00,
2013-04-02 18:15:00,35.5,16.2,29.85,North,0,0.0,0.0,45,0.00,BKN,,0.00,21.0,WeatherDisplay:10.37,2013-04-02 22:15:00,
2013-04-02 18:20:00,35.2,16.5,29.85,North,0,0.0,0.0,46,0.00,BKN,,0.00,35.0,WeatherDisplay:10.37,2013-04-02 22:20:00,
2013-04-02 18:25:00,35.0,16.3,29.85,North,0,0.0,0.0,46,0.00,BKN,,0.00,25.0,WeatherDisplay:10.37,2013-04-02 22:25:00,
2013-04-02 18:30:00,34.8,16.1,29.86,North,0,0.0,0.0,46,0.00,BKN,,0.00,21.0,WeatherDisplay:10.37,2013-04-02 22:30:00,
2013-04-02 18:35:00,34.6,15.9,29.86,North,0,0.0,0.0,46,0.00,BKN,,0.00,21.0,WeatherDisplay:10.37,2013-04-02 22:35:00,
2013-04-02 18:40:00,34.4,16.7,29.86,North,0,0.0,0.0,48,0.00,BKN,,0.00,16.0,WeatherDisplay:10.37,2013-04-02 22:40:00,
2013-04-02 18:45:00,34.2,17.0,29.86,North,0,0.0,0.0,49,0.00,BKN,,0.00,12.0,WeatherDisplay:10.37,2013-04-02 22:45:00,
2013-04-02 18:50:00,34.1,17.4,29.86,North,0,0.0,0.0,50,0.00,BKN,,0.00,19.0,WeatherDisplay:10.37,2013-04-02 22:50:00,
2013-04-02 18:55:00,34.0,17.3,29.86,North,0,0.0,0.0,50,0.00,BKN,,0.00,16.0,WeatherDisplay:10.37,2013-04-02 22:55:00,
2013-04-02 19:01:00,33.9,16.7,29.87,North,0,0.0,0.0,49,0.00,BKN,,0.00,11.0,WeatherDisplay:10.37,2013-04-02 23:01:00,
2013-04-02 19:06:00,33.9,16.3,29.87,North,0,0.0,0.0,48,0.00,BKN,,0.00,5.0,WeatherDisplay:10.37,2013-04-02 23:06:00,
2013-04-02 19:12:00,33.9,15.8,29.87,North,0,0.0,0.0,47,0.00,OVC,,0.00,0.0,WeatherDisplay:10.37,2013-04-02 23:12:00,
2013-04-02 19:17:00,33.8,15.7,29.88,North,0,0.0,0.0,47,0.00,OVC,,0.00,0.0,WeatherDisplay:10.37,2013-04-02 23:17:00,
2013-04-02 19:22:00,33.8,15.7,29.88,North,0,0.0,0.0,47,0.00,OVC,,0.00,0.0,WeatherDisplay:10.37,2013-04-02 23:22:00,
2013-04-02 19:27:00,33.7,15.6,29.88,North,0,0.0,0.0,47,0.00,OVC,,0.00,0.0,WeatherDisplay:10.37,2013-04-02 23:27:00,
2013-04-02 19:32:00,33.6,15.0,29.89,North,0,0.0,0.0,46,0.00,OVC,,0.00,0.0,WeatherDisplay:10.37,2013-04-02 23:32:00,
2013-04-02 19:37:00,33.5,14.9,29.89,North,0,0.0,0.0,46,0.00,OVC,,0.00,0.0,WeatherDisplay:10.37,2013-04-02 23:37:00,
2013-04-02 19:42:00,33.4,15.3,29.89,North,0,0.0,0.0,47,0.00,OVC,,0.00,0.0,WeatherDisplay:10.37,2013-04-02 23:42:00,
2013-04-02 19:47:00,33.3,15.2,29.89,North,0,0.0,0.0,47,0.00,CLR,,0.00,0.0,WeatherDisplay:10.37,2013-04-02 23:47:00,
2013-04-02 19:53:00,33.2,15.6,29.89,North,0,0.0,0.0,48,0.00,CLR,,0.00,0.0,WeatherDisplay:10.37,2013-04-02 23:53:00,
2013-04-02 19:58:00,33.1,15.5,29.90,North,0,0.0,0.0,48,0.00,CLR,,0.00,0.0,WeatherDisplay:10.37,2013-04-02 23:58:00,
2013-04-02 20:03:00,33.0,15.9,29.89,North,0,0.0,0.0,49,0.00,CLR,,0.00,0.0,WeatherDisplay:10.37,2013-04-03 00:03:00,
2013-04-02 20:08:00,32.9,15.8,29.90,North,0,0.0,0.0,49,0.00,CLR,,0.00,0.0,WeatherDisplay:10.37,2013-04-03 00:08:00,
2013-04-02 20:13:00,32.8,15.2,29.90,North,0,0.0,0.0,48,0.00,CLR,,0.00,0.0,WeatherDisplay:10.37,2013-04-03 00:13:00,
2013-04-02 20:18:00,32.8,15.7,29.90,North,0,0.0,0.0,49,0.00,CLR,,0.00,0.0,WeatherDisplay:10.37,2013-04-03 00:18:00,
2013-04-02 20:23:00,32.8,15.2,29.90,North,0,0.0,0.0,48,0.00,CLR,,0.00,0.0,WeatherDisplay:10.37,2013-04-03 00:23:00,
2013-04-02 20:28:00,32.8,15.7,29.91,North,0,0.0,0.0,49,0.00,CLR,,0.00,0.0,WeatherDisplay:10.37,2013-04-03 00:28:00,
2013-04-02 20:33:00,32.7,15.6,29.91,North,0,0.0,0.0,49,0.00,CLR,,0.00,0.0,WeatherDisplay:10.37,2013-04-03 00:33:00,
2013-04-02 20:38:00,32.7,15.6,29.91,North,0,0.0,0.0,49,0.00,CLR,,0.00,0.0,WeatherDisplay:10.37,2013-04-03 00:38:00,
2013-04-02 20:43:00,32.7,15.6,29.91,North,0,0.0,0.0,49,0.00,CLR,,0.00,0.0,WeatherDisplay:10.37,2013-04-03 00:43:00,
2013-04-02 20:48:00,32.6,15.5,29.91,North,0,0.0,0.0,49,0.00,CLR,,0.00,0.0,WeatherDisplay:10.37,2013-04-03 00:48:00,
2013-04-02 20:53:00,32.6,15.5,29.92,North,0,0.0,0.0,49,0.00,CLR,,0.00,0.0,WeatherDisplay:10.37,2013-04-03 00:53:00,
2013-04-02 20:58:00,32.6,16.0,29.92,North,0,0.0,0.0,50,0.00,CLR,,0.00,0.0,WeatherDisplay:10.37,2013-04-03 00:58:00,
2013-04-02 21:04:00,32.5,15.9,29.92,North,0,0.0,0.0,50,0.00,CLR,,0.00,0.0,WeatherDisplay:10.37,2013-04-03 01:04:00,
2013-04-02 21:09:00,32.4,15.8,29.92,North,0,0.0,0.0,50,0.00,CLR,,0.00,0.0,WeatherDisplay:10.37,2013-04-03 01:09:00,
2013-04-02 21:14:00,32.4,15.8,29.92,North,0,0.0,0.0,50,0.00,CLR,,0.00,0.0,WeatherDisplay:10.37,2013-04-03 01:14:00,
2013-04-02 21:19:00,32.4,15.8,29.92,North,0,0.0,0.0,50,0.00,CLR,,0.00,0.0,WeatherDisplay:10.37,2013-04-03 01:19:00,
2013-04-02 21:24:00,32.3,16.2,29.93,North,0,0.0,0.0,51,0.00,CLR,,0.00,0.0,WeatherDisplay:10.37,2013-04-03 01:24:00,
2013-04-02 21:29:00,32.3,15.7,29.93,North,0,0.0,0.0,50,0.00,CLR,,0.00,0.0,WeatherDisplay:10.37,2013-04-03 01:29:00,
2013-04-02 21:34:00,32.2,16.1,29.93,North,0,0.0,0.0,51,0.00,CLR,,0.00,0.0,WeatherDisplay:10.37,2013-04-03 01:34:00,
2013-04-02 21:39:00,32.2,16.5,29.93,North,0,0.0,0.0,52,0.00,CLR,,0.00,0.0,WeatherDisplay:10.37,2013-04-03 01:39:00,
2013-04-02 21:44:00,32.1,16.4,29.93,North,0,0.0,0.0,52,0.00,CLR,,0.00,0.0,WeatherDisplay:10.37,2013-04-03 01:44:00,
2013-04-02 21:49:00,32.1,16.9,29.93,North,0,0.0,0.0,53,0.00,CLR,,0.00,0.0,WeatherDisplay:10.37,2013-04-03 01:49:00,
2013-04-02 21:54:00,31.9,16.7,29.93,North,0,0.0,0.0,53,0.00,CLR,,0.00,0.0,WeatherDisplay:10.37,2013-04-03 01:54:00,
2013-04-02 21:59:00,31.9,17.1,29.93,North,0,0.0,0.0,54,0.00,CLR,,0.00,0.0,WeatherDisplay:10.37,2013-04-03 01:59:00,
2013-04-02 22:05:00,31.8,17.0,29.93,North,0,0.0,0.0,54,0.00,CLR,,0.00,0.0,WeatherDisplay:10.37,2013-04-03 02:05:00,
2013-04-02 22:10:00,31.8,17.5,29.93,North,0,0.0,0.0,55,0.00,CLR,,0.00,0.0,WeatherDisplay:10.37,2013-04-03 02:10:00,
2013-04-02 22:15:00,31.7,17.4,29.93,North,0,0.0,0.0,55,0.00,CLR,,0.00,0.0,WeatherDisplay:10.37,2013-04-03 02:15:00,
2013-04-02 22:21:00,31.7,17.4,29.92,North,0,0.0,0.0,55,0.00,CLR,,0.00,0.0,WeatherDisplay:10.37,2013-04-03 02:21:00,
2013-04-02 22:26:00,31.7,17.8,29.92,North,0,0.0,0.0,56,0.00,CLR,,0.00,0.0,WeatherDisplay:10.37,2013-04-03 02:26:00,
2013-04-02 22:31:00,31.7,17.8,29.92,North,0,0.0,0.0,56,0.00,CLR,,0.00,0.0,WeatherDisplay:10.37,2013-04-03 02:31:00,
2013-04-02 22:36:00,31.7,17.8,29.92,North,0,0.0,0.0,56,0.00,CLR,,0.00,0.0,WeatherDisplay:10.37,2013-04-03 02:36:00,
2013-04-02 22:41:00,31.5,18.0,29.92,North,0,0.0,0.0,57,0.00,CLR,,0.00,0.0,WeatherDisplay:10.37,2013-04-03 02:41:00,
2013-04-02 22:46:00,31.5,18.0,29.92,North,0,0.0,0.0,57,0.00,CLR,,0.00,0.0,WeatherDisplay:10.37,2013-04-03 02:46:00,
2013-04-02 22:52:00,31.4,17.9,29.92,North,0,0.0,0.0,57,0.00,CLR,,0.00,0.0,WeatherDisplay:10.37,2013-04-03 02:52:00,
2013-04-02 22:57:00,31.3,17.8,29.92,North,0,0.0,0.0,57,0.00,CLR,,0.00,0.0,WeatherDisplay:10.37,2013-04-03 02:57:00,
2013-04-02 23:02:00,31.3,18.2,29.92,North,0,0.0,0.0,58,0.00,CLR,,0.00,0.0,WeatherDisplay:10.37,2013-04-03 03:02:00,
2013-04-02 23:07:00,31.2,18.1,29.92,North,0,0.0,0.0,58,0.00,CLR,,0.00,0.0,WeatherDisplay:10.37,2013-04-03 03:07:00,
2013-04-02 23:12:00,31.2,18.5,29.92,North,0,0.0,0.0,59,0.00,CLR,,0.00,0.0,WeatherDisplay:10.37,2013-04-03 03:12:00,
2013-04-02 23:17:00,31.2,18.1,29.92,North,0,0.0,0.0,58,0.00,CLR,,0.00,0.0,WeatherDisplay:10.37,2013-04-03 03:17:00,
2013-04-02 23:22:00,31.2,18.5,29.92,North,0,0.0,0.0,59,0.00,CLR,,0.00,0.0,WeatherDisplay:10.37,2013-04-03 03:22:00,
2013-04-02 23:27:00,31.2,18.1,29.92,North,0,0.0,0.0,58,0.00,CLR,,0.00,0.0,WeatherDisplay:10.37,2013-04-03 03:27:00,
2013-04-02 23:32:00,31.2,18.5,29.92,North,0,0.0,0.0,59,0.00,CLR,,0.00,0.0,WeatherDisplay:10.37,2013-04-03 03:32:00,
2013-04-02 23:37:00,31.2,18.5,29.92,North,0,0.0,0.0,59,0.00,CLR,,0.00,0.0,WeatherDisplay:10.37,2013-04-03 03:37:00,
2013-04-02 23:42:00,31.1,18.8,29.92,North,0,0.0,0.0,60,0.00,CLR,,0.00,0.0,WeatherDisplay:10.37,2013-04-03 03:42:00,
2013-04-02 23:47:00,31.1,18.8,29.92,North,0,0.0,0.0,60,0.00,CLR,,0.00,0.0,WeatherDisplay:10.37,2013-04-03 03:47:00,
2013-04-02 23:52:00,31.1,18.8,29.92,North,0,0.0,0.0,60,0.00,CLR,,0.00,0.0,WeatherDisplay:10.37,2013-04-03 03:52:00,
2013-04-02 23:57:00,31.1,18.8,29.92,North,0,0.0,0.0,60,0.00,CLR,,0.00,0.0,WeatherDisplay:10.37,2013-04-03 03:57:00,